UUEEUWKD

Guest
Details From UUEE - Moscou Sheremetyevo
To UWKD - Kazan
Flight Number -
Tags Generated
Created
Modified
Stats Distance 401 nm / 743 km
Max Altitude 0 ft / 0 m
Waypoints 3
Social Downloads 9
Likes 0
Share VATSIM

Download

Looking for another format? Having issues loading an existing format? Contact us
Advertisement - Login to hide

Notes

Generated

Route

UUEE AM UWKD

ID Type Via Altitude Latitude Longitude Leg Dist Tot Dist Heading (true) Name
O UUEE APT - 0 ft / 0 m 55.96979˚ 37.38673˚ - 0 nm - -
AM NDB - 0 ft / 0 m 55.63167˚ 49.20833˚ 399 nm 399 nm 88° / 98° KAZAN NDB
O UWKD APT - 0 ft / 0 m 55.61063˚ 49.26681˚ 2 nm 401 nm 122° / 123° -

Altitude Profile

Advertisement - Login to hide

Weather


0- 5 10 15 20 25 30 35+ Temperature / ° C

Clouds and Precipitation
Forecast for 2017-12-18 18:00 UTC. Updated 2 hours ago

Ground ~20,000 ft ~40,000 ft Winds

UUEE

Details ICAO UUEE (SVO)
Name Moscou Sheremetyevo
Region Russia
Timezone Europe/Moscow (UTC+3.0)
Stats Elevation 622 ft / 190 m (AMSL)
Location 55.972642° 37.414586°
Runways 2
Magnetic Variation 11.167° E

METAR

UUEE 181500Z 03006MPS 4500 -SN OVC008 M01/M02 Q1021 R06R/520145 TEMPO 1000 SHSN BKNO10CB

Decode

TAF

TAF UUEE 181400Z 1815/1915 03007MPS 2100 -SN OVC006 TX01/1912Z TNM01/1821Z TEMPO 1815/1903 06012MPS 0700 +SHSN OVC002 BKN010CB PROB40 TEMPO 1815/1903 -FZRA BECMG 1903/1905 5000 -SN OVC007 TEMPO 1903/1915 2100 -SN OVC004

Decode

Departure Runways

ID Width Length Bearing (true) Bearing (mag) Surface Threshold Offset Overrun Length
07L 197 ft / 60 m 11,613 ft / 3,540 m 74.99° 63.82° Concrete 0 ft / 0 m 240 ft / 73 m
07R 197 ft / 60 m 12,127 ft / 3,696 m 75.03° 63.86° Concrete 0 ft / 0 m 235 ft / 72 m
25L 197 ft / 60 m 12,127 ft / 3,696 m 255.08° 243.91° Concrete 0 ft / 0 m 245 ft / 75 m
25R 197 ft / 60 m 11,613 ft / 3,540 m 255.04° 243.87° Concrete 0 ft / 0 m 245 ft / 75 m

UWKD

Details ICAO UWKD (KZN)
Name KAZAN
Region Russia
Timezone Europe/Moscow (UTC+3.0)
Stats Elevation 411 ft / 125 m (AMSL)
Location 55.606544° 49.279689°
Runways 2
Magnetic Variation 13.288° E

METAR

UWKD 181500Z 16005G10MPS CAVOK M09/M12 Q1031 R11/710050 NOSIG RMK QFE763/1017

Decode

TAF

TAF UWKD 181351Z 1815/1915 15006MPS 9999 BKN020 TXM08/1912Z TNM10/1903Z TEMPO 1815/1818 16007G12MPS TEMPO 1818/1903 3100 -SN OVC011

Decode

Destination Runways

ID Width Length Bearing (true) Bearing (mag) Surface Threshold Offset Overrun Length
11L 144 ft / 44 m 12,189 ft / 3,715 m 126.46° 113.17° Concrete 837 ft / 255 m 0 ft / 0 m
11R 148 ft / 45 m 8,174 ft / 2,492 m 124.48° 111.19° Concrete 0 ft / 0 m 180 ft / 55 m
29L 148 ft / 45 m 8,174 ft / 2,492 m 304.51° 291.22° Concrete 0 ft / 0 m 180 ft / 55 m
29R 144 ft / 44 m 12,189 ft / 3,715 m 306.50° 293.21° Concrete 0 ft / 0 m 160 ft / 49 m

Popular Alternatives